Time;durP1;ratioP1;P1;durP2;ratioP2;P2;SDS_P1;SDS_P2;PMS_P1;PMS_P2;Temp;Humidity;BMP_temperature;BMP_pressure;BME280_temperature;BME280_humidity;BME280_pressure;Samples;Min_cycle;Max_cycle;Signal;HPM_P1;HPM_P2
2023/04/16 00:01:33;;;;;;;1999.90;999.90;;;7.60;99.90;;;;;;5052377;28;20027;-72
2023/04/16 00:03:58;;;;;;;1999.90;999.90;;;7.50;99.90;;;;;;5052275;28;20033;-72
2023/04/16 00:06:24;;;;;;;1999.90;999.90;;;7.40;99.90;;;;;;5052201;28;20103;-77
2023/04/16 00:08:50;;;;;;;1999.90;999.90;;;7.40;99.90;;;;;;5052312;28;20056;-77
2023/04/16 00:11:16;;;;;;;1999.90;999.90;;;7.40;99.90;;;;;;5052268;28;20021;-77
2023/04/16 00:13:42;;;;;;;1999.90;999.90;;;7.40;99.90;;;;;;5051924;28;20064;-72
2023/04/16 00:16:08;;;;;;;1999.90;999.90;;;7.40;99.90;;;;;;5052038;28;20056;-71
2023/04/16 00:18:33;;;;;;;1999.90;999.90;;;7.40;99.90;;;;;;5052189;28;20395;-77
2023/04/16 00:20:59;;;;;;;1999.90;999.90;;;7.40;99.90;;;;;;5052258;28;20087;-77
2023/04/16 00:23:25;;;;;;;1999.90;999.90;;;7.30;99.90;;;;;;5052150;28;20025;-77
2023/04/16 00:25:52;;;;;;;1999.90;999.90;;;7.30;99.90;;;;;;5052155;28;20036;-71
2023/04/16 00:28:18;;;;;;;1999.90;999.90;;;7.20;99.90;;;;;;5058963;28;20356;-71
2023/04/16 00:30:43;;;;;;;1999.90;999.90;;;7.20;99.90;;;;;;5071721;28;20480;-77
2023/04/16 00:33:09;;;;;;;1999.90;999.90;;;7.20;99.90;;;;;;5072106;28;20494;-71
2023/04/16 00:35:35;;;;;;;1999.90;999.90;;;7.10;99.90;;;;;;5071915;28;20174;-77
2023/04/16 00:38:00;;;;;;;1999.90;999.90;;;7.00;99.90;;;;;;5072061;28;20025;-71
2023/04/16 00:40:27;;;;;;;1999.90;999.90;;;7.00;99.90;;;;;;5071997;28;20541;-71
2023/04/16 00:42:53;;;;;;;1999.90;999.90;;;7.00;99.90;;;;;;5067891;28;20021;-77
2023/04/16 00:45:19;;;;;;;1999.90;999.90;;;6.90;99.90;;;;;;5055469;28;20429;-77
2023/04/16 00:47:45;;;;;;;1999.90;999.90;;;6.90;99.90;;;;;;5055568;28;20025;-71
2023/04/16 00:50:11;;;;;;;1999.90;999.90;;;6.90;99.90;;;;;;5055228;28;20084;-77
2023/04/16 00:52:37;;;;;;;1999.90;999.90;;;6.80;99.90;;;;;;5055284;28;20480;-71
2023/04/16 00:55:05;;;;;;;1999.90;999.90;;;6.80;99.90;;;;;;5055417;28;20025;-71
2023/04/16 00:57:31;;;;;;;1999.90;999.90;;;6.80;99.90;;;;;;5055275;28;20130;-77
2023/04/16 00:59:57;;;;;;;1999.90;999.90;;;6.80;99.90;;;;;;5055518;28;20578;-72
2023/04/16 01:02:23;;;;;;;1999.90;999.90;;;6.80;99.90;;;;;;5053281;28;20117;-71
2023/04/16 01:04:49;;;;;;;1999.90;999.90;;;6.80;99.90;;;;;;5055318;28;20060;-71
2023/04/16 01:07:14;;;;;;;1999.90;999.90;;;6.70;99.90;;;;;;5055133;28;20017;-71
2023/04/16 01:09:40;;;;;;;1999.90;999.90;;;6.70;99.90;;;;;;5055111;28;20483;-77
2023/04/16 01:12:06;;;;;;;1999.90;999.90;;;6.70;99.90;;;;;;5054895;28;20025;-77
2023/04/16 01:14:35;;;;;;;1999.90;999.90;;;6.70;99.90;;;;;;5054969;28;20060;-77
2023/04/16 01:17:01;;;;;;;1999.90;999.90;;;6.60;99.90;;;;;;5054309;28;20048;-71
2023/04/16 01:19:29;;;;;;;1999.90;999.90;;;6.60;99.90;;;;;;5055002;28;20048;-71
2023/04/16 01:21:55;;;;;;;1999.90;999.90;;;6.60;99.90;;;;;;5055042;28;20104;-77
2023/04/16 01:24:21;;;;;;;1999.90;999.90;;;6.50;99.90;;;;;;5054859;28;20066;-77
2023/04/16 01:26:46;;;;;;;1999.90;999.90;;;6.60;99.90;;;;;;5054669;28;20029;-71
2023/04/16 01:29:12;;;;;;;1999.90;999.90;;;6.50;99.90;;;;;;5068694;28;20031;-71
2023/04/16 01:31:38;;;;;;;1999.90;999.90;;;6.50;99.90;;;;;;5074532;28;20104;-71
2023/04/16 01:34:03;;;;;;;1999.90;999.90;;;6.50;99.90;;;;;;5074452;28;20025;-71
2023/04/16 01:36:29;;;;;;;1999.90;999.90;;;6.50;99.90;;;;;;5074780;28;20070;-71
2023/04/16 01:38:55;;;;;;;1999.90;999.90;;;6.50;99.90;;;;;;5074619;28;20076;-77
2023/04/16 01:41:20;;;;;;;1999.90;999.90;;;6.50;99.90;;;;;;5074462;28;20021;-77
2023/04/16 01:43:46;;;;;;;1999.90;999.90;;;6.40;99.90;;;;;;5062708;28;20128;-71
2023/04/16 01:46:23;;;;;;;1999.90;999.90;;;6.40;99.90;;;;;;5054166;28;20488;-71
2023/04/16 01:48:49;;;;;;;1999.90;999.90;;;6.40;99.90;;;;;;5051494;28;20566;-77
2023/04/16 01:51:15;;;;;;;1999.90;999.90;;;6.40;99.90;;;;;;5054508;28;20028;-71
2023/04/16 01:53:40;;;;;;;1999.90;999.90;;;6.40;99.90;;;;;;5054216;28;20029;-71
2023/04/16 01:56:06;;;;;;;1999.90;999.90;;;6.40;99.90;;;;;;5053591;28;20083;-71
2023/04/16 01:58:32;;;;;;;1999.90;999.90;;;6.40;99.90;;;;;;5054004;28;20036;-71
2023/04/16 02:00:58;;;;;;;1999.90;999.90;;;6.40;99.90;;;;;;5054325;28;20065;-71
2023/04/16 02:03:24;;;;;;;1999.90;999.90;;;6.40;99.90;;;;;;5053856;28;20052;-71
2023/04/16 02:05:50;;;;;;;1999.90;999.90;;;6.40;99.90;;;;;;5054370;28;20495;-71
2023/04/16 02:08:16;;;;;;;1999.90;999.90;;;6.30;99.90;;;;;;5053931;28;20033;-71
2023/04/16 02:10:45;;;;;;;1999.90;999.90;;;6.30;99.90;;;;;;5054205;28;20066;-71
2023/04/16 02:13:11;;;;;;;1999.90;999.90;;;6.40;99.90;;;;;;5053793;28;20025;-71
2023/04/16 02:15:37;;;;;;;1999.90;999.90;;;6.30;99.90;;;;;;5053088;28;20029;-77
2023/04/16 02:18:02;;;;;;;1999.90;999.90;;;6.30;99.90;;;;;;5053799;28;20026;-72
2023/04/16 02:20:28;;;;;;;1999.90;999.90;;;6.30;99.90;;;;;;5053777;28;20070;-77
2023/04/16 02:22:53;;;;;;;1999.90;999.90;;;6.40;99.90;;;;;;5053891;28;20025;-71
2023/04/16 02:25:19;;;;;;;1999.90;999.90;;;6.30;99.90;;;;;;5053623;28;20033;-72
2023/04/16 02:27:45;;;;;;;1999.90;999.90;;;6.30;99.90;;;;;;5055982;28;20040;-71
2023/04/16 02:30:10;;;;;;;1999.90;999.90;;;6.30;99.90;;;;;;5073117;28;20078;-71
2023/04/16 02:32:36;;;;;;;1999.90;999.90;;;6.30;99.90;;;;;;5073584;28;20066;-71
2023/04/16 02:35:02;;;;;;;1999.90;999.90;;;6.30;99.90;;;;;;5065446;28;20021;-71
2023/04/16 02:37:28;;;;;;;1999.90;999.90;;;6.30;99.90;;;;;;5053249;28;20032;-71
2023/04/16 02:39:54;;;;;;;1999.90;999.90;;;6.30;99.90;;;;;;5053484;28;20029;-71
2023/04/16 02:42:20;;;;;;;1999.90;999.90;;;6.30;99.90;;;;;;5053465;28;20104;-71
2023/04/16 02:44:45;;;;;;;1999.90;999.90;;;6.30;99.90;;;;;;5053144;28;20020;-77
2023/04/16 02:47:11;;;;;;;1999.90;999.90;;;6.30;99.90;;;;;;5053754;28;20033;-71
2023/04/16 02:49:36;;;;;;;1999.90;999.90;;;6.30;99.90;;;;;;5053158;28;20045;-71
2023/04/16 02:52:02;;;;;;;1999.90;999.90;;;6.30;99.90;;;;;;5051702;28;20063;-71
2023/04/16 02:54:29;;;;;;;1999.90;999.90;;;6.30;99.90;;;;;;5053331;28;20049;-71
2023/04/16 02:56:55;;;;;;;1999.90;999.90;;;6.30;99.90;;;;;;5053079;28;20492;-71
2023/04/16 02:59:21;;;;;;;1999.90;999.90;;;6.40;99.90;;;;;;5053092;28;20067;-71
2023/04/16 03:01:46;;;;;;;1999.90;999.90;;;6.30;99.90;;;;;;5053105;28;20021;-77
2023/04/16 03:04:12;;;;;;;1999.90;999.90;;;6.40;99.90;;;;;;5051469;28;20472;-72
2023/04/16 03:06:38;;;;;;;1999.90;999.90;;;6.30;99.90;;;;;;5053239;28;20086;-71
2023/04/16 03:09:03;;;;;;;1999.90;999.90;;;6.40;99.90;;;;;;5052924;28;20442;-78
2023/04/16 03:11:29;;;;;;;1999.90;999.90;;;6.40;99.90;;;;;;5053185;28;20361;-71
2023/04/16 03:13:55;;;;;;;1999.90;999.90;;;6.40;99.90;;;;;;5051489;28;20040;-72
2023/04/16 03:16:21;;;;;;;1999.90;999.90;;;6.40;99.90;;;;;;5052566;28;20056;-77
2023/04/16 03:18:46;;;;;;;1999.90;999.90;;;6.50;99.90;;;;;;5052652;28;20025;-71
2023/04/16 03:21:12;;;;;;;1999.90;999.90;;;6.50;99.90;;;;;;5053360;28;20028;-71
2023/04/16 03:23:37;;;;;;;1999.90;999.90;;;6.40;99.90;;;;;;5052874;28;20520;-71
2023/04/16 03:26:03;;;;;;;1999.90;999.90;;;6.40;99.90;;;;;;5052665;28;20025;-77
2023/04/16 03:28:29;;;;;;;1999.90;999.90;;;6.40;99.90;;;;;;5061103;28;20056;-71
2023/04/16 03:30:54;;;;;;;1999.90;999.90;;;6.40;99.90;;;;;;5072191;28;20060;-71
2023/04/16 03:33:21;;;;;;;1999.90;999.90;;;6.30;99.90;;;;;;5072642;28;20052;-70
2023/04/16 03:35:54;;;;;;;1999.90;999.90;;;6.30;99.90;;;;;;5073139;28;20021;-71
2023/04/16 03:38:19;;;;;;;1999.90;999.90;;;6.20;99.90;;;;;;5072571;28;20024;-71
2023/04/16 03:40:45;;;;;;;1999.90;999.90;;;6.20;99.90;;;;;;5072642;28;20032;-71
2023/04/16 03:43:11;;;;;;;1999.90;999.90;;;6.20;99.90;;;;;;5065652;28;20021;-77
2023/04/16 03:45:42;;;;;;;1999.90;999.90;;;6.10;99.90;;;;;;5052617;28;20028;-77
2023/04/16 03:48:07;;;;;;;1999.90;999.90;;;6.10;99.90;;;;;;5052349;28;20029;-71
2023/04/16 03:50:33;;;;;;;1999.90;999.90;;;6.10;99.90;;;;;;5050974;28;20538;-71
2023/04/16 03:52:59;;;;;;;1999.90;999.90;;;6.10;99.90;;;;;;5052450;28;20041;-77
2023/04/16 03:55:24;;;;;;;1999.90;999.90;;;6.10;99.90;;;;;;5052409;28;20441;-71
2023/04/16 03:57:50;;;;;;;1999.90;999.90;;;6.10;99.90;;;;;;5052547;28;20024;-71
2023/04/16 04:00:16;;;;;;;1999.90;999.90;;;6.00;99.90;;;;;;5052296;28;20029;-71
2023/04/16 04:02:42;;;;;;;1999.90;999.90;;;6.00;99.90;;;;;;5052448;28;20025;-71
2023/04/16 04:05:08;;;;;;;1999.90;999.90;;;6.00;99.90;;;;;;5052327;28;20108;-71
2023/04/16 04:07:33;;;;;;;1999.90;999.90;;;6.00;99.90;;;;;;5052176;28;20466;-71
2023/04/16 04:09:59;;;;;;;1999.90;999.90;;;6.00;99.90;;;;;;5052310;28;20025;-71
2023/04/16 04:12:25;;;;;;;1999.90;999.90;;;6.00;99.90;;;;;;5052518;28;20025;-77
2023/04/16 04:14:50;;;;;;;1999.90;999.90;;;6.00;99.90;;;;;;5052364;28;20499;-71
2023/04/16 04:17:16;;;;;;;1999.90;999.90;;;6.00;99.90;;;;;;5051690;28;20395;-71
2023/04/16 04:19:41;;;;;;;1999.90;999.90;;;6.00;99.90;;;;;;5054886;28;20079;-71
2023/04/16 04:22:07;;;;;;;1999.90;999.90;;;6.00;99.90;;;;;;5055978;28;20401;-71
2023/04/16 04:24:32;;;;;;;1999.90;999.90;;;6.00;99.90;;;;;;5055964;28;20061;-71
2023/04/16 04:26:58;;;;;;;1999.90;999.90;;;5.90;99.90;;;;;;5056074;28;20025;-71
2023/04/16 04:29:24;;;;;;;1999.90;999.90;;;5.90;99.90;;;;;;5071984;28;20032;-71
2023/04/16 04:31:50;;;;;;;1999.90;999.90;;;5.90;99.90;;;;;;5075123;28;20025;-71
2023/04/16 04:34:15;;;;;;;1999.90;999.90;;;5.80;99.90;;;;;;5075827;28;20028;-77
2023/04/16 04:36:41;;;;;;;1999.90;999.90;;;5.80;99.90;;;;;;5075909;28;20147;-71
2023/04/16 04:39:06;;;;;;;1999.90;999.90;;;5.80;99.90;;;;;;5075567;28;20467;-71
2023/04/16 04:41:32;;;;;;;1999.90;999.90;;;5.80;99.90;;;;;;5075751;28;20021;-71
2023/04/16 04:43:58;;;;;;;1999.90;999.90;;;5.70;99.90;;;;;;5062480;28;20029;-71
2023/04/16 04:46:23;;;;;;;1999.90;999.90;;;5.70;99.90;;;;;;5055487;28;20017;-71
2023/04/16 04:48:49;;;;;;;1999.90;999.90;;;5.60;99.90;;;;;;5055350;28;20068;-72
2023/04/16 04:51:15;;;;;;;1999.90;999.90;;;5.60;99.90;;;;;;5055535;28;20040;-71
2023/04/16 04:53:42;;;;;;;1999.90;999.90;;;5.60;99.90;;;;;;5055583;28;20021;-71
2023/04/16 04:56:08;;;;;;;1999.90;999.90;;;5.60;99.90;;;;;;5055262;28;20099;-72
2023/04/16 04:58:33;;;;;;;1999.90;999.90;;;5.50;99.90;;;;;;5055663;28;20108;-71
2023/04/16 05:00:59;;;;;;;1999.90;999.90;;;5.50;99.90;;;;;;5055190;28;20032;-72
2023/04/16 05:03:25;;;;;;;1999.90;999.90;;;5.40;99.90;;;;;;5055215;28;20060;-71
2023/04/16 05:05:50;;;;;;;1999.90;999.90;;;5.40;99.90;;;;;;5055351;28;20048;-71
2023/04/16 05:08:16;;;;;;;1999.90;999.90;;;5.40;99.90;;;;;;5055116;28;20365;-76
2023/04/16 05:10:41;;;;;;;1999.90;999.90;;;5.40;99.90;;;;;;5055176;28;20095;-72
2023/04/16 05:13:07;;;;;;;1999.90;999.90;;;5.30;99.90;;;;;;5054879;28;20072;-71
2023/04/16 05:15:33;;;;;;;1999.90;999.90;;;5.30;99.90;;;;;;5054809;28;20029;-76
2023/04/16 05:17:58;;;;;;;1999.90;999.90;;;5.30;99.90;;;;;;5055147;28;20029;-77
2023/04/16 05:20:24;;;;;;;1999.90;999.90;;;5.30;99.90;;;;;;5054716;28;20048;-71
2023/04/16 05:22:50;;;;;;;1999.90;999.90;;;5.30;99.90;;;;;;5055310;28;20083;-77
2023/04/16 05:25:16;;;;;;;1999.90;999.90;;;5.30;99.90;;;;;;5053671;28;20040;-72
2023/04/16 05:27:42;;;;;;;1999.90;999.90;;;5.40;99.90;;;;;;5056500;28;20025;-76
2023/04/16 05:30:08;;;;;;;1999.90;999.90;;;5.40;99.90;;;;;;5073545;28;20407;-71
2023/04/16 05:32:34;;;;;;;1999.90;999.90;;;5.40;99.90;;;;;;5074081;28;20038;-77
2023/04/16 05:35:00;;;;;;;1999.90;999.90;;;5.40;99.90;;;;;;5074765;28;20574;-76
2023/04/16 05:37:26;;;;;;;1999.90;999.90;;;5.50;99.90;;;;;;5074525;28;20028;-71
2023/04/16 05:39:51;;;;;;;1999.90;999.90;;;5.60;99.90;;;;;;5074612;28;20104;-71
2023/04/16 05:42:17;;;;;;;1999.90;999.90;;;5.60;99.90;;;;;;5073229;28;20029;-71
2023/04/16 05:44:42;;;;;;;1999.90;999.90;;;5.60;99.90;;;;;;5055116;28;20476;-72
2023/04/16 05:47:08;;;;;;;1999.90;999.90;;;5.70;99.90;;;;;;5054664;28;20098;-71
2023/04/16 05:49:36;;;;;;;1999.90;999.90;;;5.80;99.90;;;;;;5054285;28;20041;-71
2023/04/16 05:52:02;;;;;;;1999.90;999.90;;;5.80;99.90;;;;;;5054292;28;20013;-71
2023/04/16 05:54:28;;;;;;;1999.90;999.90;;;5.80;99.90;;;;;;5054357;28;20128;-71
2023/04/16 05:56:53;;;;;;;1999.90;999.90;;;5.90;99.90;;;;;;5054274;28;20103;-71
2023/04/16 05:59:19;;;;;;;1999.90;999.90;;;5.90;99.90;;;;;;5054239;28;20430;-71
2023/04/16 06:01:45;;;;;;;1999.90;999.90;;;6.00;99.90;;;;;;5054159;28;20108;-71
2023/04/16 06:04:10;;;;;;;1999.90;999.90;;;6.20;99.90;;;;;;5054133;28;20487;-71
2023/04/16 06:06:36;;;;;;;1999.90;999.90;;;6.30;99.90;;;;;;5054137;28;20039;-77
2023/04/16 06:09:03;;;;;;;1999.90;999.90;;;6.40;99.90;;;;;;5054188;28;20032;-71
2023/04/16 06:11:31;;;;;;;1999.90;999.90;;;6.50;99.90;;;;;;5054145;28;20032;-71
2023/04/16 06:13:57;;;;;;;1999.90;999.90;;;6.60;99.90;;;;;;5054071;28;20028;-72
2023/04/16 06:16:23;;;;;;;1999.90;999.90;;;6.70;99.90;;;;;;5053768;28;20515;-77
2023/04/16 06:18:48;;;;;;;1999.90;999.90;;;6.80;99.90;;;;;;5054039;28;20025;-72
2023/04/16 06:21:14;;;;;;;1999.90;999.90;;;7.00;99.90;;;;;;5053848;28;20100;-71
2023/04/16 06:23:40;;;;;;;1999.90;999.90;;;7.10;99.90;;;;;;5053714;28;20112;-71
2023/04/16 06:26:06;;;;;;;1999.90;999.90;;;7.20;99.90;;;;;;5053875;28;20151;-71
2023/04/16 06:28:31;;;;;;;1999.90;999.90;;;7.30;99.90;;;;;;5062499;28;20081;-71
2023/04/16 06:30:57;;;;;;;1999.90;999.90;;;7.30;99.90;;;;;;5073466;28;20029;-72
2023/04/16 06:33:23;;;;;;;1999.90;999.90;;;7.40;99.90;;;;;;5073000;28;20479;-77
2023/04/16 06:35:48;;;;;;;1999.90;999.90;;;7.40;99.90;;;;;;5073388;28;20063;-71
2023/04/16 06:38:14;;;;;;;1999.90;999.90;;;7.50;99.90;;;;;;5072100;28;20066;-77
2023/04/16 06:40:40;;;;;;;1999.90;999.90;;;7.60;99.90;;;;;;5073261;28;20028;-72
2023/04/16 06:43:06;;;;;;;1999.90;999.90;;;7.60;99.90;;;;;;5067244;28;20033;-71
2023/04/16 06:45:31;;;;;;;1999.90;999.90;;;7.70;99.90;;;;;;5052076;28;20029;-71
2023/04/16 06:48:00;;;;;;;1999.90;999.90;;;7.70;99.90;;;;;;5053143;28;20036;-71
2023/04/16 06:50:27;;;;;;;1999.90;999.90;;;7.80;99.90;;;;;;5053045;28;20049;-72
2023/04/16 06:52:53;;;;;;;1999.90;999.90;;;7.90;99.90;;;;;;5053115;28;20029;-71
2023/04/16 06:55:19;;;;;;;1999.90;999.90;;;8.00;99.90;;;;;;5053211;28;20471;-72
2023/04/16 06:57:45;;;;;;;1999.90;999.90;;;8.10;99.90;;;;;;5053364;28;20063;-72
2023/04/16 07:00:11;;;;;;;1999.90;999.90;;;8.20;99.90;;;;;;5051577;28;20028;-72
2023/04/16 07:02:36;;;;;;;1999.90;999.90;;;8.30;99.90;;;;;;5053200;28;20021;-72
2023/04/16 07:05:02;;;;;;;1999.90;999.90;;;8.40;99.90;;;;;;5052959;28;20139;-72
2023/04/16 07:07:28;;;;;;;1999.90;999.90;;;8.60;99.90;;;;;;5052927;28;20025;-77
2023/04/16 07:09:54;;;;;;;1999.90;999.90;;;8.70;99.90;;;;;;5053087;28;20452;-71
2023/04/16 07:12:19;;;;;;;1999.90;999.90;;;9.10;99.90;;;;;;5052744;28;20066;-71
2023/04/16 07:14:45;;;;;;;1999.90;999.90;;;9.30;99.90;;;;;;5052833;28;20025;-71
2023/04/16 07:17:11;;;;;;;1999.90;999.90;;;9.40;99.90;;;;;;5052564;28;20017;-77
2023/04/16 07:19:37;;;;;;;1999.90;999.90;;;9.60;99.90;;;;;;5051781;28;20108;-71
2023/04/16 07:22:03;;;;;;;1999.90;999.90;;;9.80;99.90;;;;;;5052796;28;20488;-71
2023/04/16 07:24:28;;;;;;;1999.90;999.90;;;10.00;99.90;;;;;;5052933;28;20550;-71
2023/04/16 07:26:54;;;;;;;1999.90;999.90;;;10.20;99.90;;;;;;5052789;28;20021;-71
2023/04/16 07:29:20;;;;;;;1999.90;999.90;;;10.40;99.90;;;;;;5052578;28;20037;-72
2023/04/16 07:31:45;;;;;;;1999.90;999.90;;;10.60;99.90;;;;;;5050840;28;20029;-72
2023/04/16 07:34:11;;;;;;;1999.90;999.90;;;10.70;99.90;;;;;;5052441;28;20480;-72
2023/04/16 07:36:37;;;;;;;1999.90;999.90;;;10.90;99.90;;;;;;5052820;28;20388;-77
2023/04/16 07:39:04;;;;;;;1999.90;999.90;;;10.80;99.90;;;;;;5052479;28;20514;-72
2023/04/16 07:41:30;;;;;;;1999.90;999.90;;;10.80;99.90;;;;;;5052584;28;20017;-72
2023/04/16 07:43:56;;;;;;;1999.90;999.90;;;10.90;99.90;;;;;;5052471;28;20391;-72
2023/04/16 07:46:22;;;;;;;1999.90;999.90;;;11.10;99.90;;;;;;5052563;28;20063;-72
2023/04/16 07:48:48;;;;;;;1999.90;999.90;;;11.30;99.90;;;;;;5052221;28;20095;-78
2023/04/16 07:51:13;;;;;;;1999.90;999.90;;;11.50;99.90;;;;;;5052403;28;20033;-72
2023/04/16 07:53:39;;;;;;;1999.90;999.90;;;11.80;99.90;;;;;;5053412;28;20044;-72
2023/04/16 07:56:05;;;;;;;1999.90;999.90;;;11.70;99.90;;;;;;5056830;28;20021;-72
2023/04/16 07:58:31;;;;;;;1999.90;999.90;;;11.90;99.90;;;;;;5056639;28;20021;-72
2023/04/16 08:00:57;;;;;;;1999.90;999.90;;;12.10;99.90;;;;;;5056605;28;20090;-71
2023/04/16 08:03:23;;;;;;;1999.90;999.90;;;12.40;99.90;;;;;;5056374;28;20112;-73
2023/04/16 08:05:48;;;;;;;1999.90;999.90;;;13.80;99.90;;;;;;5056307;28;20108;-72
2023/04/16 08:08:14;;;;;;;1999.90;999.90;;;16.00;99.90;;;;;;5056143;28;20074;-72
2023/04/16 08:10:40;;;;;;;1999.90;999.90;;;18.30;99.90;;;;;;5056339;28;20388;-72
2023/04/16 08:13:05;;;;;;;1999.90;999.90;;;19.10;99.90;;;;;;5056106;28;20033;-73
2023/04/16 08:15:31;;;;;;;1999.90;999.90;;;19.10;99.90;;;;;;5056081;28;20090;-78
2023/04/16 08:17:56;;;;;;;1999.90;999.90;;;20.20;99.90;;;;;;5056116;28;20103;-72
2023/04/16 08:20:22;;;;;;;1999.90;999.90;;;20.80;99.90;;;;;;5056517;28;20032;-73
2023/04/16 08:22:48;;;;;;;1999.90;999.90;;;21.30;99.90;;;;;;5056271;28;20029;-73
2023/04/16 08:25:14;;;;;;;1999.90;999.90;;;21.80;99.90;;;;;;5055959;28;20021;-72
2023/04/16 08:27:40;;;;;;;1999.90;999.90;;;22.60;99.90;;;;;;5057373;28;20104;-73
2023/04/16 08:30:06;;;;;;;1999.90;999.90;;;23.00;99.90;;;;;;5075825;28;20162;-73
2023/04/16 08:32:32;;;;;;;1999.90;999.90;;;23.60;99.10;;;;;;5075101;28;20029;-72
2023/04/16 08:34:58;;;;;;;1999.90;999.90;;;24.00;98.70;;;;;;5075778;28;20043;-74
2023/04/16 08:37:24;;;;;;;1999.90;999.90;;;24.10;98.00;;;;;;5075915;28;20029;-73
2023/04/16 08:39:50;;;;;;;1999.90;999.90;;;24.30;97.70;;;;;;5075675;28;20403;-74
2023/04/16 08:42:31;;;;;;;1999.90;999.90;;;24.70;97.60;;;;;;5075601;28;20099;-73
2023/04/16 08:45:15;;;;;;;1999.90;999.90;;;24.10;96.80;;;;;;5035792;28;20028;-73
2023/04/16 08:47:45;;;;;;;1999.90;999.90;;;23.90;97.60;;;;;;5040058;28;20017;-73
2023/04/16 08:50:21;;;;;;;1999.90;999.90;;;24.80;96.70;;;;;;5055219;28;20447;-73
2023/04/16 08:52:51;;;;;;;1999.90;999.90;;;25.70;97.30;;;;;;5055367;28;20033;-78
2023/04/16 08:55:22;;;;;;;1999.90;999.90;;;25.20;95.80;;;;;;5055345;28;20028;-78
2023/04/16 08:57:53;;;;;;;1999.90;999.90;;;24.80;96.50;;;;;;5055528;28;20395;-73
2023/04/16 09:00:18;;;;;;;1999.90;999.90;;;25.40;96.80;;;;;;5055231;28;20503;-73
2023/04/16 09:02:44;;;;;;;1999.90;999.90;;;25.20;96.10;;;;;;5055218;28;20036;-79
2023/04/16 09:05:15;;;;;;;1999.90;999.90;;;24.80;96.80;;;;;;5054926;28;20021;-74
2023/04/16 09:07:42;;;;;;;1999.90;999.90;;;24.10;96.90;;;;;;5055312;28;20032;-74
2023/04/16 09:10:09;;;;;;;1999.90;999.90;;;24.60;97.50;;;;;;5055135;28;20090;-73
2023/04/16 09:12:35;;;;;;;1999.90;999.90;;;25.20;96.00;;;;;;5055304;28;20027;-73
2023/04/16 09:15:02;;;;;;;1999.90;999.90;;;25.60;96.10;;;;;;5054907;28;20096;-74
2023/04/16 09:17:28;;;;;;;1999.90;999.90;;;25.60;99.00;;;;;;5055019;28;20025;-79
2023/04/16 09:19:53;;;;;;;1999.90;999.90;;;25.00;95.60;;;;;;5054936;28;20392;-74
2023/04/16 09:22:20;;;;;;;1999.90;999.90;;;23.30;97.60;;;;;;5053996;28;20029;-73
2023/04/16 09:24:45;;;;;;;1999.90;999.90;;;23.10;99.30;;;;;;5055012;28;20021;-74
2023/04/16 09:27:11;;;;;;;1999.90;999.90;;;23.50;98.40;;;;;;5054813;28;20033;-73
2023/04/16 09:29:39;;;;;;;1999.90;999.90;;;24.20;97.80;;;;;;5072512;28;20051;-79
2023/04/16 09:32:06;;;;;;;1999.90;999.90;;;24.20;97.20;;;;;;5073922;28;20085;-74
2023/04/16 09:34:33;;;;;;;1999.90;999.90;;;25.10;98.80;;;;;;5073910;28;20391;-73
2023/04/16 09:37:15;;;;;;;1999.90;999.90;;;25.20;97.70;;;;;;5074735;28;20107;-74
2023/04/16 09:39:42;;;;;;;1999.90;999.90;;;25.50;96.90;;;;;;5074442;28;20021;-79
2023/04/16 09:42:08;;;;;;;1999.90;999.90;;;25.30;97.00;;;;;;5074471;28;20452;-73
2023/04/16 09:44:36;;;;;;;1999.90;999.90;;;25.70;95.20;;;;;;5056548;28;20021;-71
2023/04/16 09:47:06;;;;;;;1999.90;999.90;;;26.40;96.70;;;;;;5054469;28;20067;-72
2023/04/16 09:49:35;;;;;;;1999.90;999.90;;;25.40;95.30;;;;;;5054110;28;20049;-77
2023/04/16 09:52:01;;;;;;;1999.90;999.90;;;25.40;95.40;;;;;;5054323;28;20021;-77
2023/04/16 09:54:26;;;;;;;1999.90;999.90;;;25.10;96.50;;;;;;5054367;28;20036;-77
2023/04/16 09:56:55;;;;;;;1999.90;999.90;;;25.10;95.40;;;;;;5054629;28;20029;-71
2023/04/16 09:59:22;;;;;;;1999.90;999.90;;;24.50;95.00;;;;;;5054345;28;20017;-71
2023/04/16 10:01:49;;;;;;;1999.90;999.90;;;24.80;95.30;;;;;;5054502;28;20032;-79
2023/04/16 10:04:15;;;;;;;1999.90;999.90;;;24.10;95.90;;;;;;5054164;28;20029;-79
2023/04/16 10:06:41;;;;;;;1999.90;999.90;;;23.80;98.80;;;;;;5053926;28;20052;-80
2023/04/16 10:09:08;;;;;;;1999.90;999.90;;;24.00;96.80;;;;;;5054297;28;20102;-80
2023/04/16 10:11:34;;;;;;;1999.90;999.90;;;24.00;96.70;;;;;;5054358;28;20072;-74
2023/04/16 10:14:00;;;;;;;1999.90;999.90;;;23.80;98.60;;;;;;5052643;28;20403;-74
2023/04/16 10:16:26;;;;;;;1999.90;999.90;;;24.70;98.00;;;;;;5053273;28;20021;-74
2023/04/16 10:18:53;;;;;;;1999.90;999.90;;;24.60;96.00;;;;;;5053415;28;20017;-80
2023/04/16 10:21:19;;;;;;;1999.90;999.90;;;24.20;96.70;;;;;;5053895;28;20082;-79
2023/04/16 10:23:46;;;;;;;1999.90;999.90;;;22.90;97.10;;;;;;5051306;28;20059;-74
2023/04/16 10:26:12;;;;;;;1999.90;999.90;;;21.50;99.90;;;;;;5053678;28;20056;-74
2023/04/16 10:28:39;;;;;;;1999.90;999.90;;;21.60;99.90;;;;;;5053693;28;20111;-79
2023/04/16 10:31:07;;;;;;;1999.90;999.90;;;23.00;99.90;;;;;;5053429;28;20488;-73
2023/04/16 10:33:39;;;;;;;1999.90;999.90;;;23.30;99.90;;;;;;5053047;28;20020;-79
2023/04/16 10:36:15;;;;;;;1999.90;999.90;;;22.80;99.10;;;;;;5053521;28;20102;-79
2023/04/16 10:38:45;;;;;;;1999.90;999.90;;;22.00;99.90;;;;;;5053927;28;20021;-73
2023/04/16 10:41:11;;;;;;;1999.90;999.90;;;21.70;99.70;;;;;;5053502;28;20029;-74
2023/04/16 10:43:44;;;;;;;1999.90;999.90;;;21.30;99.90;;;;;;5053301;28;20043;-80
2023/04/16 10:46:30;;;;;;;1999.90;999.90;;;21.10;99.90;;;;;;5053312;28;20047;-73
2023/04/16 10:48:59;;;;;;;1999.90;999.90;;;20.80;99.90;;;;;;5053370;28;20056;-80
2023/04/16 10:51:34;;;;;;;1999.90;999.90;;;20.60;99.90;;;;;;5053328;28;20428;-74
2023/04/16 10:54:10;;;;;;;1999.90;999.90;;;20.80;99.90;;;;;;5053073;28;20376;-79
2023/04/16 10:56:36;;;;;;;1999.90;999.90;;;21.20;99.90;;;;;;5053601;28;20079;-73
2023/04/16 10:59:07;;;;;;;1999.90;999.90;;;20.90;99.90;;;;;;5053023;28;20021;-73
2023/04/16 11:01:35;;;;;;;1999.90;999.90;;;20.60;99.90;;;;;;5053537;28;20024;-79
2023/04/16 11:04:23;;;;;;;1999.90;999.90;;;20.50;99.90;;;;;;5051824;28;20408;-73
2023/04/16 11:07:10;;;;;;;1999.90;999.90;;;20.60;99.90;;;;;;5052893;28;20036;-73
2023/04/16 11:10:01;;;;;;;1999.90;999.90;;;20.60;99.90;;;;;;5033056;28;20083;-73
2023/04/16 11:12:38;;;;;;;1999.90;999.90;;;20.60;99.90;;;;;;5033313;28;20029;-73
2023/04/16 11:15:12;;;;;;;1999.90;999.90;;;20.10;99.90;;;;;;5032995;28;20061;-73
2023/04/16 11:17:43;;;;;;;1999.90;999.90;;;20.10;99.90;;;;;;5031634;28;20021;-73
2023/04/16 11:20:23;;;;;;;1999.90;999.90;;;20.10;99.90;;;;;;5031524;28;20029;-79
2023/04/16 11:22:54;;;;;;;1999.90;999.90;;;20.20;99.90;;;;;;5035812;28;20500;-74
2023/04/16 11:25:25;;;;;;;1999.90;999.90;;;19.80;99.90;;;;;;5050629;28;20029;-79
2023/04/16 11:27:51;;;;;;;1999.90;999.90;;;20.40;99.90;;;;;;5055733;28;20048;-73
2023/04/16 11:30:18;;;;;;;1999.90;999.90;;;20.30;99.90;;;;;;5072499;28;20421;-73
2023/04/16 11:32:44;;;;;;;1999.90;999.90;;;19.40;99.90;;;;;;5072687;28;20020;-73
2023/04/16 11:35:14;;;;;;;1999.90;999.90;;;18.60;99.90;;;;;;5072063;28;20091;-73
2023/04/16 11:37:41;;;;;;;1999.90;999.90;;;19.40;99.90;;;;;;5073055;28;20433;-79
2023/04/16 11:40:08;;;;;;;1999.90;999.90;;;19.60;99.90;;;;;;5072676;28;20021;-79
2023/04/16 11:42:41;;;;;;;1999.90;999.90;;;20.20;99.90;;;;;;5071340;28;20099;-72
2023/04/16 11:45:08;;;;;;;1999.90;999.90;;;20.30;99.90;;;;;;5052656;28;20017;-73
2023/04/16 11:47:52;;;;;;;1999.90;999.90;;;20.80;99.90;;;;;;5052824;28;20083;-73
2023/04/16 11:50:20;;;;;;;1999.90;999.90;;;20.50;99.90;;;;;;5052317;28;20060;-73
2023/04/16 11:52:46;;;;;;;1999.90;999.90;;;20.20;99.90;;;;;;5052369;28;20515;-79
2023/04/16 11:55:12;;;;;;;1999.90;999.90;;;20.30;99.90;;;;;;5052496;28;20061;-73
2023/04/16 11:57:38;;;;;;;1999.90;999.90;;;20.30;99.90;;;;;;5052388;28;20025;-73
2023/04/16 12:00:12;;;;;;;1999.90;999.90;;;20.00;99.90;;;;;;5052475;28;20044;-72
2023/04/16 12:02:48;;;;;;;1999.90;999.90;;;19.60;99.90;;;;;;5052523;28;20096;-73